sensor_id;sensor_type;location;lat;lon;timestamp;pressure;altitude;pressure_sealevel;temperature
20730;BMP280;10526;50.850;12.928;2023-08-07T00:00:04;96853.44;;;14.22
20730;BMP280;10526;50.850;12.928;2023-08-07T00:04:26;96845.88;;;14.21
20730;BMP280;10526;50.850;12.928;2023-08-07T00:08:48;96850.63;;;14.17
20730;BMP280;10526;50.850;12.928;2023-08-07T00:13:10;96850.19;;;14.18
20730;BMP280;10526;50.850;12.928;2023-08-07T00:17:32;96845.72;;;14.15
20730;BMP280;10526;50.850;12.928;2023-08-07T00:21:54;96834.88;;;14.10
20730;BMP280;10526;50.850;12.928;2023-08-07T00:26:17;96846.03;;;14.08
20730;BMP280;10526;50.850;12.928;2023-08-07T00:30:39;96845.28;;;14.07
20730;BMP280;10526;50.850;12.928;2023-08-07T00:35:01;96846.63;;;14.12
20730;BMP280;10526;50.850;12.928;2023-08-07T00:39:23;96842.03;;;14.13
20730;BMP280;10526;50.850;12.928;2023-08-07T00:43:45;96840.97;;;14.10
20730;BMP280;10526;50.850;12.928;2023-08-07T00:48:08;96844.25;;;14.05
20730;BMP280;10526;50.850;12.928;2023-08-07T00:52:30;96845.41;;;14.04
20730;BMP280;10526;50.850;12.928;2023-08-07T00:56:53;96844.25;;;14.05
20730;BMP280;10526;50.850;12.928;2023-08-07T01:01:16;96850.75;;;14.04
20730;BMP280;10526;50.850;12.928;2023-08-07T01:05:40;96834.84;;;14.00
20730;BMP280;10526;50.850;12.928;2023-08-07T01:10:02;96840.53;;;14.02
20730;BMP280;10526;50.850;12.928;2023-08-07T01:14:44;96834.84;;;14.00
20730;BMP280;10526;50.850;12.928;2023-08-07T01:19:22;96849.31;;;14.03
20730;BMP280;10526;50.850;12.928;2023-08-07T01:23:47;96835.75;;;14.06
20730;BMP280;10526;50.850;12.928;2023-08-07T01:28:22;96839.91;;;14.07
20730;BMP280;10526;50.850;12.928;2023-08-07T01:33:22;96842.44;;;14.11
20730;BMP280;10526;50.850;12.928;2023-08-07T01:37:47;96851.22;;;14.12
20730;BMP280;10526;50.850;12.928;2023-08-07T01:42:10;96854.66;;;14.12
20730;BMP280;10526;50.850;12.928;2023-08-07T01:46:32;96856.16;;;14.13
20730;BMP280;10526;50.850;12.928;2023-08-07T01:50:54;96855.41;;;14.13
20730;BMP280;10526;50.850;12.928;2023-08-07T01:55:20;96858.66;;;14.07
20730;BMP280;10526;50.850;12.928;2023-08-07T01:59:46;96859.09;;;14.06
20730;BMP280;10526;50.850;12.928;2023-08-07T02:04:08;96863.72;;;14.05
20730;BMP280;10526;50.850;12.928;2023-08-07T02:08:30;96856.72;;;14.08
20730;BMP280;10526;50.850;12.928;2023-08-07T02:12:52;96855.53;;;14.00
20730;BMP280;10526;50.850;12.928;2023-08-07T02:17:14;96853.28;;;13.98
20730;BMP280;10526;50.850;12.928;2023-08-07T02:21:36;96861.03;;;13.96
20730;BMP280;10526;50.850;12.928;2023-08-07T02:25:58;96870.09;;;13.99
20730;BMP280;10526;50.850;12.928;2023-08-07T02:30:20;96863.25;;;13.98
20730;BMP280;10526;50.850;12.928;2023-08-07T02:34:44;96873.53;;;13.99
20730;BMP280;10526;50.850;12.928;2023-08-07T02:39:07;96882.75;;;13.98
20730;BMP280;10526;50.850;12.928;2023-08-07T02:43:29;96880.06;;;13.98
20730;BMP280;10526;50.850;12.928;2023-08-07T02:47:52;96886.03;;;14.02
20730;BMP280;10526;50.850;12.928;2023-08-07T02:52:14;96892.88;;;14.03
20730;BMP280;10526;50.850;12.928;2023-08-07T02:56:36;96894.06;;;14.02
20730;BMP280;10526;50.850;12.928;2023-08-07T03:01:04;96893.75;;;14.00
20730;BMP280;10526;50.850;12.928;2023-08-07T03:05:27;96889.31;;;13.97
20730;BMP280;10526;50.850;12.928;2023-08-07T03:09:49;96904.75;;;13.93
20730;BMP280;10526;50.850;12.928;2023-08-07T03:14:11;96909.66;;;13.95
20730;BMP280;10526;50.850;12.928;2023-08-07T03:18:33;96910.72;;;13.97
20730;BMP280;10526;50.850;12.928;2023-08-07T03:22:56;96909.97;;;13.97
20730;BMP280;10526;50.850;12.928;2023-08-07T03:27:18;96918.28;;;13.99
20730;BMP280;10526;50.850;12.928;2023-08-07T03:31:40;96925.13;;;14.00
20730;BMP280;10526;50.850;12.928;2023-08-07T03:36:03;96925.84;;;14.00
20730;BMP280;10526;50.850;12.928;2023-08-07T03:40:25;96939.09;;;14.04
20730;BMP280;10526;50.850;12.928;2023-08-07T03:44:47;96933.47;;;14.02
20730;BMP280;10526;50.850;12.928;2023-08-07T03:49:09;96943.44;;;14.01
20730;BMP280;10526;50.850;12.928;2023-08-07T03:53:31;96945.38;;;14.01
20730;BMP280;10526;50.850;12.928;2023-08-07T03:57:53;96944.91;;;14.02
20730;BMP280;10526;50.850;12.928;2023-08-07T04:02:15;96953.25;;;14.04
20730;BMP280;10526;50.850;12.928;2023-08-07T04:06:39;96955.34;;;14.10
20730;BMP280;10526;50.850;12.928;2023-08-07T04:11:05;96958.31;;;14.12
20730;BMP280;10526;50.850;12.928;2023-08-07T04:15:29;96958.31;;;14.12
20730;BMP280;10526;50.850;12.928;2023-08-07T04:19:51;96965.59;;;14.11
20730;BMP280;10526;50.850;12.928;2023-08-07T04:24:13;96966.47;;;14.08
20730;BMP280;10526;50.850;12.928;2023-08-07T04:28:35;96974.22;;;13.97
20730;BMP280;10526;50.850;12.928;2023-08-07T04:32:57;96972.81;;;13.92
20730;BMP280;10526;50.850;12.928;2023-08-07T04:37:19;96981.78;;;13.89
20730;BMP280;10526;50.850;12.928;2023-08-07T04:41:41;96989.16;;;13.85
20730;BMP280;10526;50.850;12.928;2023-08-07T04:46:03;96985.88;;;13.81
20730;BMP280;10526;50.850;12.928;2023-08-07T04:50:25;97001.63;;;13.79
20730;BMP280;10526;50.850;12.928;2023-08-07T04:54:47;97003.69;;;13.75
20730;BMP280;10526;50.850;12.928;2023-08-07T04:59:10;97009.34;;;13.77
20730;BMP280;10526;50.850;12.928;2023-08-07T05:03:32;97010.88;;;13.78
20730;BMP280;10526;50.850;12.928;2023-08-07T05:07:55;97009.09;;;13.84
20730;BMP280;10526;50.850;12.928;2023-08-07T05:12:17;97019.97;;;13.90
20730;BMP280;10526;50.850;12.928;2023-08-07T05:16:39;97011.81;;;13.93
20730;BMP280;10526;50.850;12.928;2023-08-07T05:21:01;97013.91;;;13.98
20730;BMP280;10526;50.850;12.928;2023-08-07T05:25:23;97013.50;;;14.09
20730;BMP280;10526;50.850;12.928;2023-08-07T05:29:45;97019.63;;;14.19
20730;BMP280;10526;50.850;12.928;2023-08-07T05:34:07;97022.13;;;14.22
20730;BMP280;10526;50.850;12.928;2023-08-07T05:38:29;97026.03;;;14.21
20730;BMP280;10526;50.850;12.928;2023-08-07T05:42:51;97032.72;;;14.26
20730;BMP280;10526;50.850;12.928;2023-08-07T05:47:13;97037.53;;;14.40
20730;BMP280;10526;50.850;12.928;2023-08-07T05:51:35;97045.75;;;14.64
20730;BMP280;10526;50.850;12.928;2023-08-07T05:55:57;97048.88;;;14.72
20730;BMP280;10526;50.850;12.928;2023-08-07T06:00:19;97052.94;;;14.85
20730;BMP280;10526;50.850;12.928;2023-08-07T06:04:41;97068.13;;;14.98
20730;BMP280;10526;50.850;12.928;2023-08-07T06:09:03;97071.22;;;14.96
20730;BMP280;10526;50.850;12.928;2023-08-07T06:13:25;97077.50;;;15.02
20730;BMP280;10526;50.850;12.928;2023-08-07T06:17:57;97075.56;;;15.03
20730;BMP280;10526;50.850;12.928;2023-08-07T06:22:19;97088.34;;;15.26
20730;BMP280;10526;50.850;12.928;2023-08-07T06:26:41;97095.34;;;15.42
20730;BMP280;10526;50.850;12.928;2023-08-07T06:31:05;97095.16;;;15.64
20730;BMP280;10526;50.850;12.928;2023-08-07T06:35:27;97105.28;;;15.78
20730;BMP280;10526;50.850;12.928;2023-08-07T06:39:48;97108.66;;;15.88
20730;BMP280;10526;50.850;12.928;2023-08-07T06:44:10;97119.38;;;15.97
20730;BMP280;10526;50.850;12.928;2023-08-07T06:48:33;97119.41;;;15.88
20730;BMP280;10526;50.850;12.928;2023-08-07T06:52:55;97121.75;;;16.04
20730;BMP280;10526;50.850;12.928;2023-08-07T06:57:17;97124.13;;;16.11
20730;BMP280;10526;50.850;12.928;2023-08-07T07:01:39;97139.78;;;16.13
20730;BMP280;10526;50.850;12.928;2023-08-07T07:06:01;97140.66;;;15.58
20730;BMP280;10526;50.850;12.928;2023-08-07T07:10:23;97141.84;;;15.30
20730;BMP280;10526;50.850;12.928;2023-08-07T07:14:45;97143.34;;;15.12
20730;BMP280;10526;50.850;12.928;2023-08-07T07:19:07;97156.78;;;15.21
20730;BMP280;10526;50.850;12.928;2023-08-07T07:23:30;97170.16;;;15.31
20730;BMP280;10526;50.850;12.928;2023-08-07T07:27:52;97159.28;;;15.34
20730;BMP280;10526;50.850;12.928;2023-08-07T07:32:15;97164.97;;;15.55
20730;BMP280;10526;50.850;12.928;2023-08-07T07:36:37;97168.38;;;15.73
20730;BMP280;10526;50.850;12.928;2023-08-07T07:40:59;97171.94;;;15.89
20730;BMP280;10526;50.850;12.928;2023-08-07T07:45:21;97174.22;;;16.14
20730;BMP280;10526;50.850;12.928;2023-08-07T07:49:46;97179.75;;;16.53
20730;BMP280;10526;50.850;12.928;2023-08-07T07:54:11;97186.84;;;16.74
20730;BMP280;10526;50.850;12.928;2023-08-07T07:58:36;97198.78;;;16.97
20730;BMP280;10526;50.850;12.928;2023-08-07T08:02:57;97196.09;;;17.21
20730;BMP280;10526;50.850;12.928;2023-08-07T08:07:21;97205.78;;;17.42
20730;BMP280;10526;50.850;12.928;2023-08-07T08:11:43;97209.97;;;17.43
20730;BMP280;10526;50.850;12.928;2023-08-07T08:16:05;97209.84;;;17.23
20730;BMP280;10526;50.850;12.928;2023-08-07T08:20:27;97217.34;;;17.19
20730;BMP280;10526;50.850;12.928;2023-08-07T08:24:51;97220.50;;;17.32
20730;BMP280;10526;50.850;12.928;2023-08-07T08:29:17;97219.81;;;17.08
20730;BMP280;10526;50.850;12.928;2023-08-07T08:33:39;97230.00;;;17.04
20730;BMP280;10526;50.850;12.928;2023-08-07T08:38:01;97235.50;;;16.76
20730;BMP280;10526;50.850;12.928;2023-08-07T08:42:25;97231.91;;;16.46
20730;BMP280;10526;50.850;12.928;2023-08-07T08:46:49;97241.09;;;16.12
20730;BMP280;10526;50.850;12.928;2023-08-07T08:51:19;97234.25;;;16.02
20730;BMP280;10526;50.850;12.928;2023-08-07T08:55:44;97246.97;;;15.83
20730;BMP280;10526;50.850;12.928;2023-08-07T09:00:10;97257.84;;;15.61
20730;BMP280;10526;50.850;12.928;2023-08-07T09:04:40;97253.91;;;15.26
20730;BMP280;10526;50.850;12.928;2023-08-07T09:09:04;97251.84;;;15.20
20730;BMP280;10526;50.850;12.928;2023-08-07T09:13:28;97258.59;;;15.43
20730;BMP280;10526;50.850;12.928;2023-08-07T09:17:51;97257.53;;;16.05
20730;BMP280;10526;50.850;12.928;2023-08-07T09:22:14;97264.88;;;16.56
20730;BMP280;10526;50.850;12.928;2023-08-07T09:26:36;97264.09;;;16.97
20730;BMP280;10526;50.850;12.928;2023-08-07T09:30:59;97274.09;;;17.30
20730;BMP280;10526;50.850;12.928;2023-08-07T09:35:23;97291.63;;;17.64
20730;BMP280;10526;50.850;12.928;2023-08-07T09:39:46;97282.09;;;17.78
20730;BMP280;10526;50.850;12.928;2023-08-07T09:44:10;97288.91;;;18.17
20730;BMP280;10526;50.850;12.928;2023-08-07T09:48:43;97281.75;;;18.79
20730;BMP280;10526;50.850;12.928;2023-08-07T09:53:05;97291.34;;;18.80
20730;BMP280;10526;50.850;12.928;2023-08-07T09:57:27;97291.38;;;19.00
20730;BMP280;10526;50.850;12.928;2023-08-07T10:01:49;97287.13;;;19.81
20730;BMP280;10526;50.850;12.928;2023-08-07T10:06:12;97297.97;;;20.38
20730;BMP280;10526;50.850;12.928;2023-08-07T10:10:34;97302.53;;;20.26
20730;BMP280;10526;50.850;12.928;2023-08-07T10:15:01;97296.16;;;19.98
20730;BMP280;10526;50.850;12.928;2023-08-07T10:19:23;97298.25;;;19.88
20730;BMP280;10526;50.850;12.928;2023-08-07T10:23:46;97292.81;;;19.57
20730;BMP280;10526;50.850;12.928;2023-08-07T10:28:13;97295.47;;;20.03
20730;BMP280;10526;50.850;12.928;2023-08-07T10:32:37;97289.31;;;20.02
20730;BMP280;10526;50.850;12.928;2023-08-07T10:36:59;97286.53;;;19.71
20730;BMP280;10526;50.850;12.928;2023-08-07T10:41:22;97286.53;;;19.71
20730;BMP280;10526;50.850;12.928;2023-08-07T10:45:44;97287.25;;;19.66
20730;BMP280;10526;50.850;12.928;2023-08-07T10:50:07;97291.03;;;19.54
20730;BMP280;10526;50.850;12.928;2023-08-07T10:54:35;97301.38;;;19.35
20730;BMP280;10526;50.850;12.928;2023-08-07T10:59:11;97317.97;;;18.43
20730;BMP280;10526;50.850;12.928;2023-08-07T11:03:36;97304.41;;;17.93
20730;BMP280;10526;50.850;12.928;2023-08-07T11:07:58;97293.72;;;17.84
20730;BMP280;10526;50.850;12.928;2023-08-07T11:12:20;97300.16;;;18.80
20730;BMP280;10526;50.850;12.928;2023-08-07T11:16:44;97309.50;;;19.81
20730;BMP280;10526;50.850;12.928;2023-08-07T11:21:10;97308.91;;;19.97
20730;BMP280;10526;50.850;12.928;2023-08-07T11:25:32;97306.16;;;20.18
20730;BMP280;10526;50.850;12.928;2023-08-07T11:29:54;97310.00;;;21.17
20730;BMP280;10526;50.850;12.928;2023-08-07T11:34:20;97297.34;;;21.95
20730;BMP280;10526;50.850;12.928;2023-08-07T11:38:44;97304.97;;;22.53
20730;BMP280;10526;50.850;12.928;2023-08-07T11:43:06;97299.59;;;22.08
20730;BMP280;10526;50.850;12.928;2023-08-07T11:47:28;97301.47;;;21.52
20730;BMP280;10526;50.850;12.928;2023-08-07T11:51:50;97296.88;;;22.14
20730;BMP280;10526;50.850;12.928;2023-08-07T11:56:13;97285.06;;;23.08
20730;BMP280;10526;50.850;12.928;2023-08-07T12:00:43;97285.78;;;23.55
20730;BMP280;10526;50.850;12.928;2023-08-07T12:05:09;97300.25;;;22.65
20730;BMP280;10526;50.850;12.928;2023-08-07T12:09:32;97318.53;;;19.98
20730;BMP280;10526;50.850;12.928;2023-08-07T12:13:55;97328.78;;;18.13
20730;BMP280;10526;50.850;12.928;2023-08-07T12:18:19;97321.06;;;17.68
20730;BMP280;10526;50.850;12.928;2023-08-07T12:22:42;97310.81;;;17.96
20730;BMP280;10526;50.850;12.928;2023-08-07T12:27:06;97308.97;;;18.61
20730;BMP280;10526;50.850;12.928;2023-08-07T12:31:29;97311.56;;;19.66
20730;BMP280;10526;50.850;12.928;2023-08-07T12:35:51;97320.03;;;20.31
20730;BMP280;10526;50.850;12.928;2023-08-07T12:40:15;97312.41;;;20.29
20730;BMP280;10526;50.850;12.928;2023-08-07T12:44:44;97326.03;;;20.46
20730;BMP280;10526;50.850;12.928;2023-08-07T12:49:09;97345.63;;;19.63
20730;BMP280;10526;50.850;12.928;2023-08-07T12:53:31;97333.22;;;19.31
20730;BMP280;10526;50.850;12.928;2023-08-07T12:57:53;97332.31;;;19.80
20730;BMP280;10526;50.850;12.928;2023-08-07T13:02:15;97328.97;;;20.43
20730;BMP280;10526;50.850;12.928;2023-08-07T13:06:37;97331.63;;;20.37
20730;BMP280;10526;50.850;12.928;2023-08-07T13:11:00;97337.47;;;20.30
20730;BMP280;10526;50.850;12.928;2023-08-07T13:15:21;97314.44;;;20.72
20730;BMP280;10526;50.850;12.928;2023-08-07T13:19:43;97331.53;;;20.57
20730;BMP280;10526;50.850;12.928;2023-08-07T13:24:05;97335.19;;;20.86
20730;BMP280;10526;50.850;12.928;2023-08-07T13:28:28;97316.44;;;21.30
20730;BMP280;10526;50.850;12.928;2023-08-07T13:32:49;97340.41;;;21.00
20730;BMP280;10526;50.850;12.928;2023-08-07T13:37:11;97352.03;;;20.69
20730;BMP280;10526;50.850;12.928;2023-08-07T13:41:33;97349.66;;;20.20
20730;BMP280;10526;50.850;12.928;2023-08-07T13:45:55;97362.19;;;19.71
20730;BMP280;10526;50.850;12.928;2023-08-07T13:50:17;97360.03;;;19.14
20730;BMP280;10526;50.850;12.928;2023-08-07T13:54:40;97382.03;;;18.77
20730;BMP280;10526;50.850;12.928;2023-08-07T13:59:02;97376.09;;;18.44
20730;BMP280;10526;50.850;12.928;2023-08-07T14:03:24;97376.47;;;18.51
20730;BMP280;10526;50.850;12.928;2023-08-07T14:07:46;97392.41;;;19.14
20730;BMP280;10526;50.850;12.928;2023-08-07T14:12:08;97418.56;;;19.08
20730;BMP280;10526;50.850;12.928;2023-08-07T14:16:30;97420.66;;;17.77
20730;BMP280;10526;50.850;12.928;2023-08-07T14:20:53;97438.47;;;17.50
20730;BMP280;10526;50.850;12.928;2023-08-07T14:25:23;97452.50;;;17.78
20730;BMP280;10526;50.850;12.928;2023-08-07T14:29:45;97447.19;;;17.93
20730;BMP280;10526;50.850;12.928;2023-08-07T14:34:07;97459.53;;;17.76
20730;BMP280;10526;50.850;12.928;2023-08-07T14:38:30;97455.72;;;17.35
20730;BMP280;10526;50.850;12.928;2023-08-07T14:42:52;97458.94;;;17.06
20730;BMP280;10526;50.850;12.928;2023-08-07T14:47:14;97466.00;;;16.76
20730;BMP280;10526;50.850;12.928;2023-08-07T14:51:35;97471.25;;;16.70
20730;BMP280;10526;50.850;12.928;2023-08-07T14:55:58;97482.91;;;16.67
20730;BMP280;10526;50.850;12.928;2023-08-07T15:00:20;97478.69;;;16.29
20730;BMP280;10526;50.850;12.928;2023-08-07T15:04:42;97497.34;;;16.15
20730;BMP280;10526;50.850;12.928;2023-08-07T15:09:04;97500.66;;;16.37
20730;BMP280;10526;50.850;12.928;2023-08-07T15:13:26;97485.00;;;16.63
20730;BMP280;10526;50.850;12.928;2023-08-07T15:17:48;97481.69;;;16.95
20730;BMP280;10526;50.850;12.928;2023-08-07T15:22:10;97494.19;;;17.17
20730;BMP280;10526;50.850;12.928;2023-08-07T15:26:32;97490.88;;;17.31
20730;BMP280;10526;50.850;12.928;2023-08-07T15:30:54;97492.03;;;17.39
20730;BMP280;10526;50.850;12.928;2023-08-07T15:35:16;97479.69;;;17.66
20730;BMP280;10526;50.850;12.928;2023-08-07T15:39:38;97484.09;;;17.78
20730;BMP280;10526;50.850;12.928;2023-08-07T15:44:00;97486.47;;;17.76
20730;BMP280;10526;50.850;12.928;2023-08-07T15:48:23;97515.09;;;17.31
20730;BMP280;10526;50.850;12.928;2023-08-07T15:52:45;97513.06;;;16.53
20730;BMP280;10526;50.850;12.928;2023-08-07T15:57:06;97536.47;;;16.16
20730;BMP280;10526;50.850;12.928;2023-08-07T16:01:29;97558.75;;;16.34
20730;BMP280;10526;50.850;12.928;2023-08-07T16:05:51;97559.22;;;16.60
20730;BMP280;10526;50.850;12.928;2023-08-07T16:10:13;97561.63;;;16.67
20730;BMP280;10526;50.850;12.928;2023-08-07T16:14:36;97567.00;;;16.58
20730;BMP280;10526;50.850;12.928;2023-08-07T16:19:00;97556.69;;;16.57
20730;BMP280;10526;50.850;12.928;2023-08-07T16:23:21;97559.38;;;16.75
20730;BMP280;10526;50.850;12.928;2023-08-07T16:27:44;97553.09;;;16.96
20730;BMP280;10526;50.850;12.928;2023-08-07T16:32:07;97561.63;;;16.95
20730;BMP280;10526;50.850;12.928;2023-08-07T16:36:30;97565.81;;;16.78
20730;BMP280;10526;50.850;12.928;2023-08-07T16:40:52;97574.59;;;16.60
20730;BMP280;10526;50.850;12.928;2023-08-07T16:45:14;97588.91;;;16.38
20730;BMP280;10526;50.850;12.928;2023-08-07T16:49:36;97588.59;;;16.27
20730;BMP280;10526;50.850;12.928;2023-08-07T16:54:00;97592.28;;;16.21
20730;BMP280;10526;50.850;12.928;2023-08-07T16:58:22;97598.13;;;16.28
20730;BMP280;10526;50.850;12.928;2023-08-07T17:02:48;97607.25;;;16.31
20730;BMP280;10526;50.850;12.928;2023-08-07T17:07:10;97610.84;;;15.97
20730;BMP280;10526;50.850;12.928;2023-08-07T17:11:33;97610.94;;;15.84
20730;BMP280;10526;50.850;12.928;2023-08-07T17:15:56;97617.00;;;15.75
20730;BMP280;10526;50.850;12.928;2023-08-07T17:20:19;97608.03;;;15.69
20730;BMP280;10526;50.850;12.928;2023-08-07T17:24:41;97615.13;;;15.41
20730;BMP280;10526;50.850;12.928;2023-08-07T17:29:03;97620.72;;;15.12
20730;BMP280;10526;50.850;12.928;2023-08-07T17:33:26;97616.59;;;14.99
20730;BMP280;10526;50.850;12.928;2023-08-07T17:37:48;97614.22;;;14.88
20730;BMP280;10526;50.850;12.928;2023-08-07T17:42:10;97610.00;;;14.78
20730;BMP280;10526;50.850;12.928;2023-08-07T17:46:32;97605.69;;;14.80
20730;BMP280;10526;50.850;12.928;2023-08-07T17:50:55;97621.47;;;14.65
20730;BMP280;10526;50.850;12.928;2023-08-07T17:55:17;97614.84;;;14.57
20730;BMP280;10526;50.850;12.928;2023-08-07T17:59:39;97623.31;;;14.43
20730;BMP280;10526;50.850;12.928;2023-08-07T18:04:01;97626.63;;;14.34
20730;BMP280;10526;50.850;12.928;2023-08-07T18:08:23;97625.78;;;14.25
20730;BMP280;10526;50.850;12.928;2023-08-07T18:12:45;97636.88;;;14.11
20730;BMP280;10526;50.850;12.928;2023-08-07T18:17:08;97637.31;;;13.96
20730;BMP280;10526;50.850;12.928;2023-08-07T18:21:30;97635.03;;;13.82
20730;BMP280;10526;50.850;12.928;2023-08-07T18:25:52;97638.09;;;13.68
20730;BMP280;10526;50.850;12.928;2023-08-07T18:30:15;97642.44;;;13.62
20730;BMP280;10526;50.850;12.928;2023-08-07T18:34:37;97646.28;;;13.61
20730;BMP280;10526;50.850;12.928;2023-08-07T18:38:59;97651.16;;;13.66
20730;BMP280;10526;50.850;12.928;2023-08-07T18:43:21;97652.00;;;13.63
20730;BMP280;10526;50.850;12.928;2023-08-07T18:47:43;97655.34;;;13.51
20730;BMP280;10526;50.850;12.928;2023-08-07T18:52:06;97663.38;;;13.51
20730;BMP280;10526;50.850;12.928;2023-08-07T18:56:28;97665.56;;;13.56
20730;BMP280;10526;50.850;12.928;2023-08-07T19:00:51;97680.25;;;13.64
20730;BMP280;10526;50.850;12.928;2023-08-07T19:05:13;97684.00;;;13.66
20730;BMP280;10526;50.850;12.928;2023-08-07T19:09:38;97680.25;;;13.64
20730;BMP280;10526;50.850;12.928;2023-08-07T19:14:00;97683.09;;;13.57
20730;BMP280;10526;50.850;12.928;2023-08-07T19:18:23;97696.19;;;13.38
20730;BMP280;10526;50.850;12.928;2023-08-07T19:22:45;97691.00;;;13.15
20730;BMP280;10526;50.850;12.928;2023-08-07T19:27:07;97696.38;;;12.99
20730;BMP280;10526;50.850;12.928;2023-08-07T19:31:29;97696.69;;;12.84
20730;BMP280;10526;50.850;12.928;2023-08-07T19:35:51;97698.84;;;12.73
20730;BMP280;10526;50.850;12.928;2023-08-07T19:40:13;97701.56;;;12.70
20730;BMP280;10526;50.850;12.928;2023-08-07T19:44:35;97715.97;;;12.76
20730;BMP280;10526;50.850;12.928;2023-08-07T19:48:57;97718.66;;;12.92
20730;BMP280;10526;50.850;12.928;2023-08-07T19:53:19;97717.59;;;13.06
20730;BMP280;10526;50.850;12.928;2023-08-07T19:57:41;97727.94;;;13.20
20730;BMP280;10526;50.850;12.928;2023-08-07T20:02:04;97726.28;;;13.26
20730;BMP280;10526;50.850;12.928;2023-08-07T20:06:26;97737.63;;;13.30
20730;BMP280;10526;50.850;12.928;2023-08-07T20:10:48;97732.44;;;13.23
20730;BMP280;10526;50.850;12.928;2023-08-07T20:15:10;97742.41;;;13.23
20730;BMP280;10526;50.850;12.928;2023-08-07T20:19:34;97731.69;;;13.23
20730;BMP280;10526;50.850;12.928;2023-08-07T20:23:56;97729.28;;;13.28
20730;BMP280;10526;50.850;12.928;2023-08-07T20:28:18;97731.63;;;13.26
20730;BMP280;10526;50.850;12.928;2023-08-07T20:32:40;97721.75;;;13.23
20730;BMP280;10526;50.850;12.928;2023-08-07T20:37:03;97742.34;;;13.26
20730;BMP280;10526;50.850;12.928;2023-08-07T20:41:25;97756.03;;;13.28
20730;BMP280;10526;50.850;12.928;2023-08-07T20:45:47;97754.34;;;13.34
20730;BMP280;10526;50.850;12.928;2023-08-07T20:50:10;97747.53;;;13.33
20730;BMP280;10526;50.850;12.928;2023-08-07T20:54:32;97754.03;;;13.32
20730;BMP280;10526;50.850;12.928;2023-08-07T20:58:54;97754.34;;;13.34
20730;BMP280;10526;50.850;12.928;2023-08-07T21:03:16;97757.38;;;13.36
20730;BMP280;10526;50.850;12.928;2023-08-07T21:07:38;97752.13;;;13.33
20730;BMP280;10526;50.850;12.928;2023-08-07T21:12:00;97762.47;;;13.31
20730;BMP280;10526;50.850;12.928;2023-08-07T21:16:22;97759.03;;;13.30
20730;BMP280;10526;50.850;12.928;2023-08-07T21:20:44;97763.13;;;13.35
20730;BMP280;10526;50.850;12.928;2023-08-07T21:25:07;97764.66;;;13.36
20730;BMP280;10526;50.850;12.928;2023-08-07T21:29:29;97763.56;;;13.33
20730;BMP280;10526;50.850;12.928;2023-08-07T21:33:51;97760.44;;;13.35
20730;BMP280;10526;50.850;12.928;2023-08-07T21:38:14;97757.69;;;13.38
20730;BMP280;10526;50.850;12.928;2023-08-07T21:42:36;97762.06;;;13.32
20730;BMP280;10526;50.850;12.928;2023-08-07T21:46:58;97767.56;;;13.25
20730;BMP280;10526;50.850;12.928;2023-08-07T21:51:20;97773.31;;;13.24
20730;BMP280;10526;50.850;12.928;2023-08-07T21:55:42;97767.22;;;13.23
20730;BMP280;10526;50.850;12.928;2023-08-07T22:00:04;97782.88;;;13.25
20730;BMP280;10526;50.850;12.928;2023-08-07T22:04:35;97775.31;;;13.19
20730;BMP280;10526;50.850;12.928;2023-08-07T22:08:57;97781.50;;;13.16
20730;BMP280;10526;50.850;12.928;2023-08-07T22:13:20;97773.88;;;13.15
20730;BMP280;10526;50.850;12.928;2023-08-07T22:17:42;97767.78;;;13.14
20730;BMP280;10526;50.850;12.928;2023-08-07T22:22:04;97771.72;;;13.10
20730;BMP280;10526;50.850;12.928;2023-08-07T22:26:26;97773.53;;;12.97
20730;BMP280;10526;50.850;12.928;2023-08-07T22:30:49;97778.53;;;12.78
20730;BMP280;10526;50.850;12.928;2023-08-07T22:35:11;97759.41;;;12.60
20730;BMP280;10526;50.850;12.928;2023-08-07T22:39:34;97760.75;;;12.52
20730;BMP280;10526;50.850;12.928;2023-08-07T22:43:56;97753.72;;;12.58
20730;BMP280;10526;50.850;12.928;2023-08-07T22:48:18;97755.88;;;12.67
20730;BMP280;10526;50.850;12.928;2023-08-07T22:52:40;97753.59;;;12.65
20730;BMP280;10526;50.850;12.928;2023-08-07T22:57:03;97758.69;;;12.59
20730;BMP280;10526;50.850;12.928;2023-08-07T23:01:25;97754.38;;;12.46
20730;BMP280;10526;50.850;12.928;2023-08-07T23:05:47;97746.50;;;12.39
20730;BMP280;10526;50.850;12.928;2023-08-07T23:10:09;97746.81;;;12.41
20730;BMP280;10526;50.850;12.928;2023-08-07T23:14:31;97751.38;;;12.44
20730;BMP280;10526;50.850;12.928;2023-08-07T23:18:53;97751.88;;;12.35
20730;BMP280;10526;50.850;12.928;2023-08-07T23:23:15;97755.09;;;12.26
20730;BMP280;10526;50.850;12.928;2023-08-07T23:27:37;97744.56;;;12.19
20730;BMP280;10526;50.850;12.928;2023-08-07T23:31:59;97749.63;;;12.14
20730;BMP280;10526;50.850;12.928;2023-08-07T23:36:21;97740.09;;;12.13
20730;BMP280;10526;50.850;12.928;2023-08-07T23:40:43;97753.84;;;12.11
20730;BMP280;10526;50.850;12.928;2023-08-07T23:45:06;97743.78;;;11.99
20730;BMP280;10526;50.850;12.928;2023-08-07T23:49:28;97748.69;;;11.81
20730;BMP280;10526;50.850;12.928;2023-08-07T23:53:51;97750.09;;;11.65
20730;BMP280;10526;50.850;12.928;2023-08-07T23:58:15;97754.16;;;11.50
